createdAt,value
2019-01-19T00:00:07.544Z,1009.94
2019-01-19T00:01:06.879Z,1009.94
2019-01-19T00:02:06.878Z,1009.92
2019-01-19T00:03:06.841Z,1009.95
2019-01-19T00:04:27.813Z,1009.93
2019-01-19T00:05:10.642Z,1009.90
2019-01-19T00:06:06.755Z,1009.94
2019-01-19T00:07:06.735Z,1009.86
2019-01-19T00:08:06.711Z,1009.88
2019-01-19T00:09:06.683Z,1009.88
2019-01-19T00:10:27.661Z,1009.85
2019-01-19T00:11:06.635Z,1009.83
2019-01-19T00:12:06.619Z,1009.91
2019-01-19T00:13:06.638Z,1009.84
2019-01-19T00:14:06.560Z,1009.84
2019-01-19T00:15:06.537Z,1009.81
2019-01-19T00:16:27.565Z,1009.80
2019-01-19T00:17:06.487Z,1009.84
2019-01-19T00:18:06.466Z,1009.79
2019-01-19T00:19:06.435Z,1009.80
2019-01-19T00:20:06.409Z,1009.85
2019-01-19T00:21:06.387Z,1009.85
2019-01-19T00:22:27.380Z,1009.81
2019-01-19T00:23:06.347Z,1009.80
2019-01-19T00:24:06.322Z,1009.79
2019-01-19T00:25:06.296Z,1009.79
2019-01-19T00:26:06.262Z,1009.81
2019-01-19T00:27:06.247Z,1009.77
2019-01-19T00:28:27.221Z,1009.78
2019-01-19T00:29:06.188Z,1009.79
2019-01-19T00:30:06.165Z,1009.78
2019-01-19T00:31:06.138Z,1009.79
2019-01-19T00:32:06.113Z,1009.81
2019-01-19T00:33:06.100Z,1009.78
2019-01-19T00:34:33.843Z,1009.79
2019-01-19T00:35:06.050Z,1009.77
2019-01-19T00:36:06.020Z,1009.75
2019-01-19T00:37:05.993Z,1009.76
2019-01-19T00:38:05.965Z,1009.75
2019-01-19T00:39:05.952Z,1009.75
2019-01-19T00:40:26.924Z,1009.75
2019-01-19T00:41:05.891Z,1009.76
2019-01-19T00:42:05.876Z,1009.77
2019-01-19T00:43:05.842Z,1009.80
2019-01-19T00:44:05.826Z,1009.77
2019-01-19T00:45:05.801Z,1009.78
2019-01-19T00:46:26.768Z,1009.79
2019-01-19T00:47:05.749Z,1009.79
2019-01-19T00:48:05.727Z,1009.78
2019-01-19T00:49:05.695Z,1009.78
2019-01-19T00:50:05.682Z,1009.77
2019-01-19T00:51:05.658Z,1009.79
2019-01-19T00:52:26.631Z,1009.80
2019-01-19T00:53:05.592Z,1009.80
2019-01-19T00:54:05.583Z,1009.79
2019-01-19T00:55:05.554Z,1009.76
2019-01-19T00:56:05.520Z,1009.80
2019-01-19T00:57:05.505Z,1009.80
2019-01-19T00:58:26.473Z,1009.82
2019-01-19T00:59:05.461Z,1009.79
2019-01-19T01:00:05.433Z,1009.79
2019-01-19T01:01:05.405Z,1009.78
2019-01-19T01:02:05.375Z,1009.81
2019-01-19T01:03:05.354Z,1009.81
2019-01-19T01:04:26.319Z,1009.81
2019-01-19T01:05:05.305Z,1009.79
2019-01-19T01:06:05.281Z,1009.78
2019-01-19T01:07:05.260Z,1009.77
2019-01-19T01:08:05.223Z,1009.77
2019-01-19T01:09:05.207Z,1009.74
2019-01-19T01:10:26.173Z,1009.81
2019-01-19T01:11:05.158Z,1009.79
2019-01-19T01:12:05.122Z,1009.75
2019-01-19T01:13:05.107Z,1009.75
2019-01-19T01:14:05.081Z,1009.72
2019-01-19T01:15:05.051Z,1009.74
2019-01-19T01:16:26.022Z,1009.72
2019-01-19T01:17:05.007Z,1009.72
2019-01-19T01:18:04.976Z,1009.73
2019-01-19T01:19:04.950Z,1009.72
2019-01-19T01:20:04.932Z,1009.75
2019-01-19T01:21:04.907Z,1009.68
2019-01-19T01:22:25.881Z,1009.68
2019-01-19T01:23:04.858Z,1009.68
2019-01-19T01:24:04.836Z,1009.68
2019-01-19T01:25:04.798Z,1009.69
2019-01-19T01:26:04.786Z,1009.73
2019-01-19T01:27:04.749Z,1009.73
2019-01-19T01:28:25.738Z,1009.71
2019-01-19T01:29:04.710Z,1009.71
2019-01-19T01:30:04.685Z,1009.69
2019-01-19T01:31:04.649Z,1009.67
2019-01-19T01:32:04.625Z,1009.67
2019-01-19T01:33:04.614Z,1009.66
2019-01-19T01:34:25.585Z,1009.71
2019-01-19T01:35:04.559Z,1009.67
2019-01-19T01:36:04.529Z,1009.65
2019-01-19T01:37:04.499Z,1009.67
2019-01-19T01:38:04.483Z,1009.65
2019-01-19T01:39:04.459Z,1009.68
2019-01-19T01:40:25.429Z,1009.66
2019-01-19T01:41:04.400Z,1009.67
2019-01-19T01:42:04.374Z,1009.62
2019-01-19T01:43:04.359Z,1009.63
2019-01-19T01:44:04.412Z,1009.61
2019-01-19T01:45:04.312Z,1009.64
2019-01-19T01:46:25.287Z,1009.62
2019-01-19T01:47:04.264Z,1009.62
2019-01-19T01:48:04.233Z,1009.62
2019-01-19T01:49:04.214Z,1009.62
2019-01-19T01:50:04.179Z,1009.61
2019-01-19T01:51:04.151Z,1009.59
2019-01-19T01:52:25.137Z,1009.56
2019-01-19T01:53:04.483Z,1009.58
2019-01-19T01:54:04.087Z,1009.58
2019-01-19T01:55:04.063Z,1009.53
2019-01-19T01:56:04.024Z,1009.54
2019-01-19T01:57:03.999Z,1009.54
2019-01-19T01:58:24.976Z,1009.48
2019-01-19T01:59:03.951Z,1009.50
2019-01-19T02:00:03.938Z,1009.47
2019-01-19T02:01:03.913Z,1009.46
2019-01-19T02:02:03.879Z,1009.46
2019-01-19T02:03:03.860Z,1009.46
2019-01-19T02:04:24.824Z,1009.46
2019-01-19T02:05:03.810Z,1009.46
2019-01-19T02:06:03.794Z,1009.48
2019-01-19T02:07:03.750Z,1009.45
2019-01-19T02:08:03.787Z,1009.47
2019-01-19T02:09:03.700Z,1009.47
2019-01-19T02:10:24.688Z,1009.45
2019-01-19T02:11:03.650Z,1009.47
2019-01-19T02:12:03.627Z,1009.45
2019-01-19T02:13:03.601Z,1009.46
2019-01-19T02:14:03.586Z,1009.47
2019-01-19T02:15:03.561Z,1009.44
2019-01-19T02:16:24.525Z,1009.44
2019-01-19T02:17:03.500Z,1009.39
2019-01-19T02:18:03.488Z,1009.41
2019-01-19T02:19:03.465Z,1009.41
2019-01-19T02:20:03.427Z,1009.38
2019-01-19T02:21:03.402Z,1009.38
2019-01-19T02:22:24.390Z,1009.37
2019-01-19T02:23:03.362Z,1009.39
2019-01-19T02:24:03.331Z,1009.41
2019-01-19T02:25:03.312Z,1009.43
2019-01-19T02:26:03.280Z,1009.39
2019-01-19T02:27:03.262Z,1009.37
2019-01-19T02:28:24.237Z,1009.37
2019-01-19T02:29:03.213Z,1009.37
2019-01-19T02:30:03.194Z,1009.37
2019-01-19T02:31:03.165Z,1009.37
2019-01-19T02:32:03.139Z,1009.37
2019-01-19T02:33:03.112Z,1009.33
2019-01-19T02:34:24.089Z,1009.31
2019-01-19T02:35:03.067Z,1009.38
2019-01-19T02:36:03.027Z,1009.32
2019-01-19T02:37:03.002Z,1009.30
2019-01-19T02:38:02.991Z,1009.32
2019-01-19T02:39:02.969Z,1009.32
2019-01-19T02:40:23.946Z,1009.28
2019-01-19T02:41:02.903Z,1009.31
2019-01-19T02:42:02.878Z,1009.29
2019-01-19T02:43:02.865Z,1009.27
2019-01-19T02:44:02.831Z,1009.25
2019-01-19T02:45:02.814Z,1009.26
2019-01-19T02:46:23.790Z,1009.25
2019-01-19T02:47:02.764Z,1009.25
2019-01-19T02:48:02.728Z,1009.21
2019-01-19T02:49:02.716Z,1009.21
2019-01-19T02:50:02.682Z,1009.19
2019-01-19T02:51:02.664Z,1009.19
2019-01-19T02:52:23.631Z,1009.18
2019-01-19T02:53:02.609Z,1009.19
2019-01-19T02:54:02.695Z,1009.16
2019-01-19T02:55:02.557Z,1009.14
2019-01-19T02:56:02.544Z,1009.11
2019-01-19T02:57:02.506Z,1009.15
2019-01-19T02:58:23.493Z,1009.15
2019-01-19T02:59:02.456Z,1009.17
2019-01-19T03:00:02.430Z,1009.14
2019-01-19T03:01:02.415Z,1009.12
2019-01-19T03:02:02.394Z,1009.15
2019-01-19T03:03:02.358Z,1009.13
2019-01-19T03:04:23.331Z,1009.11
2019-01-19T03:05:02.306Z,1009.14
2019-01-19T03:06:02.286Z,1009.11
2019-01-19T03:07:02.278Z,1009.10
2019-01-19T03:08:02.240Z,1009.10
2019-01-19T03:09:02.223Z,1009.08
2019-01-19T03:10:23.191Z,1009.13
2019-01-19T03:11:02.157Z,1009.11
2019-01-19T03:12:02.139Z,1009.13
2019-01-19T03:13:02.115Z,1009.09
2019-01-19T03:14:02.091Z,1009.07
2019-01-19T03:15:02.066Z,1009.04
2019-01-19T03:16:23.041Z,1009.08
2019-01-19T03:17:02.008Z,1009.05
2019-01-19T03:18:01.994Z,1009.06
2019-01-19T03:19:01.958Z,1009.05
2019-01-19T03:20:01.938Z,1009.07
2019-01-19T03:21:01.915Z,1009.06
2019-01-19T03:22:22.882Z,1009.02
2019-01-19T03:23:01.859Z,1009.02
2019-01-19T03:24:01.848Z,1008.99
2019-01-19T03:25:01.817Z,1009.02
2019-01-19T03:26:01.792Z,1009.02
2019-01-19T03:27:01.767Z,1009.04
2019-01-19T03:28:22.730Z,1009.05
2019-01-19T03:29:01.718Z,1009.04
2019-01-19T03:30:01.697Z,1009.00
2019-01-19T03:31:01.674Z,1009.00
2019-01-19T03:32:01.650Z,1008.99
2019-01-19T03:33:01.617Z,1009.04
2019-01-19T03:34:22.584Z,1009.07
2019-01-19T03:35:01.556Z,1009.04
2019-01-19T03:36:04.458Z,1009.05
2019-01-19T03:37:01.512Z,1009.06
2019-01-19T03:38:01.493Z,1009.08
2019-01-19T03:39:01.466Z,1009.04
2019-01-19T03:40:22.431Z,1009.01
2019-01-19T03:41:01.407Z,1009.04
2019-01-19T03:42:01.391Z,1009.06
2019-01-19T03:43:01.358Z,1009.07
2019-01-19T03:44:01.333Z,1009.04
2019-01-19T03:45:01.316Z,1009.02
2019-01-19T03:46:22.293Z,1009.03
2019-01-19T03:47:01.267Z,1009.04
2019-01-19T03:48:01.238Z,1009.06
2019-01-19T03:49:01.212Z,1009.06
2019-01-19T03:50:01.196Z,1009.04
2019-01-19T03:51:01.160Z,1009.05
2019-01-19T03:52:22.133Z,1009.06
2019-01-19T03:53:01.115Z,1009.06
2019-01-19T03:54:01.096Z,1009.04
2019-01-19T03:55:01.067Z,1009.07
2019-01-19T03:56:01.030Z,1009.04
2019-01-19T03:57:01.005Z,1009.06
2019-01-19T03:58:21.984Z,1009.05
2019-01-19T03:59:00.970Z,1009.05
2019-01-19T04:00:00.932Z,1009.06
2019-01-19T04:01:00.905Z,1009.06
2019-01-19T04:02:00.895Z,1009.02
2019-01-19T04:03:00.873Z,1009.00
2019-01-19T04:04:21.838Z,1009.00
2019-01-19T04:05:00.881Z,1009.01
2019-01-19T04:06:00.790Z,1009.00
2019-01-19T04:07:00.753Z,1008.97
2019-01-19T04:08:00.739Z,1009.00
2019-01-19T04:09:00.715Z,1008.98
2019-01-19T04:10:21.696Z,1009.03
2019-01-19T04:11:00.664Z,1009.00
2019-01-19T04:12:00.629Z,1008.98
2019-01-19T04:13:00.604Z,1008.99
2019-01-19T04:14:00.591Z,1009.02
2019-01-19T04:15:00.565Z,1008.99
2019-01-19T04:16:21.541Z,1008.99
2019-01-19T04:17:00.519Z,1008.99
2019-01-19T04:18:00.479Z,1008.97
2019-01-19T04:19:00.466Z,1008.95
2019-01-19T04:20:00.527Z,1008.97
2019-01-19T04:21:00.415Z,1008.98
2019-01-19T04:22:21.389Z,1008.93
2019-01-19T04:23:00.354Z,1008.94
2019-01-19T04:24:00.345Z,1008.95
2019-01-19T04:25:00.315Z,1008.90
2019-01-19T04:26:00.419Z,1008.89
2019-01-19T04:27:00.289Z,1008.92
2019-01-19T04:28:21.238Z,1008.94
2019-01-19T04:29:00.215Z,1008.92
2019-01-19T04:30:00.211Z,1008.91
2019-01-19T04:31:00.170Z,1008.93
2019-01-19T04:32:00.129Z,1008.89
2019-01-19T04:33:00.103Z,1008.83
2019-01-19T04:34:21.078Z,1008.81
2019-01-19T04:35:00.052Z,1008.79
2019-01-19T04:36:00.036Z,1008.79
2019-01-19T04:37:00.011Z,1008.82
2019-01-19T04:37:59.989Z,1008.81
2019-01-19T04:38:59.952Z,1008.85
2019-01-19T04:40:20.940Z,1008.83
2019-01-19T04:40:59.911Z,1008.85
2019-01-19T04:41:59.885Z,1008.91
2019-01-19T04:42:59.861Z,1008.82
2019-01-19T04:43:59.826Z,1008.82
2019-01-19T04:44:59.805Z,1008.84
2019-01-19T04:46:20.776Z,1008.77
2019-01-19T04:46:59.762Z,1008.82
2019-01-19T04:47:59.723Z,1008.81
2019-01-19T04:48:59.699Z,1008.79
2019-01-19T04:49:59.684Z,1008.82
2019-01-19T04:50:59.670Z,1008.81
2019-01-19T04:52:20.631Z,1008.81
2019-01-19T04:52:59.608Z,1008.76
2019-01-19T04:53:59.579Z,1008.79
2019-01-19T04:54:59.557Z,1008.77
2019-01-19T04:55:59.531Z,1008.76
2019-01-19T04:56:59.496Z,1008.72
2019-01-19T04:58:20.486Z,1008.75
2019-01-19T04:58:59.459Z,1008.73
2019-01-19T04:59:59.430Z,1008.71
2019-01-19T05:00:59.404Z,1008.72
2019-01-19T05:01:59.372Z,1008.75
2019-01-19T05:02:59.345Z,1008.69
2019-01-19T05:04:20.355Z,1008.71
2019-01-19T05:04:59.294Z,1008.70
2019-01-19T05:05:59.274Z,1008.67
2019-01-19T05:06:59.244Z,1008.64
2019-01-19T05:07:59.220Z,1008.64
2019-01-19T05:08:59.203Z,1008.66
2019-01-19T05:10:20.168Z,1008.67
2019-01-19T05:10:59.142Z,1008.62
2019-01-19T05:11:59.126Z,1008.65
2019-01-19T05:12:59.094Z,1008.63
2019-01-19T05:13:59.078Z,1008.62
2019-01-19T05:14:59.056Z,1008.64
2019-01-19T05:16:20.026Z,1008.61
2019-01-19T05:16:59.000Z,1008.64
2019-01-19T05:17:58.965Z,1008.63
2019-01-19T05:18:58.942Z,1008.62
2019-01-19T05:19:58.914Z,1008.63
2019-01-19T05:20:58.890Z,1008.57
2019-01-19T05:22:19.876Z,1008.61
2019-01-19T05:22:58.851Z,1008.60
2019-01-19T05:23:58.824Z,1008.61
2019-01-19T05:24:58.796Z,1008.59
2019-01-19T05:25:58.763Z,1008.57
2019-01-19T05:26:58.747Z,1008.62
2019-01-19T05:28:19.742Z,1008.63
2019-01-19T05:28:58.688Z,1008.62
2019-01-19T05:29:58.662Z,1008.56
2019-01-19T05:30:59.291Z,1008.62
2019-01-19T05:31:58.623Z,1008.56
2019-01-19T05:32:58.586Z,1008.59
2019-01-19T05:34:19.572Z,1008.57
2019-01-19T05:34:58.547Z,1008.56
2019-01-19T05:35:58.511Z,1008.58
2019-01-19T05:36:58.482Z,1008.57
2019-01-19T05:37:58.461Z,1008.57
2019-01-19T05:38:58.444Z,1008.55
2019-01-19T05:40:19.418Z,1008.53
2019-01-19T05:40:58.391Z,1008.54
2019-01-19T05:41:58.368Z,1008.54
2019-01-19T05:42:58.340Z,1008.57
2019-01-19T05:43:58.318Z,1008.54
2019-01-19T05:44:58.291Z,1008.51
2019-01-19T05:46:21.524Z,1008.55
2019-01-19T05:46:58.229Z,1008.50
2019-01-19T05:47:58.204Z,1008.51
2019-01-19T05:48:58.183Z,1008.50
2019-01-19T05:49:58.155Z,1008.51
2019-01-19T05:50:58.127Z,1008.51
2019-01-19T05:52:19.105Z,1008.53
2019-01-19T05:52:58.078Z,1008.51
2019-01-19T05:53:58.052Z,1008.51
2019-01-19T05:54:58.037Z,1008.50
2019-01-19T05:55:58.000Z,1008.52
2019-01-19T05:56:57.989Z,1008.56
2019-01-19T05:58:18.951Z,1008.49
2019-01-19T05:58:57.935Z,1008.52
2019-01-19T05:59:57.910Z,1008.52
2019-01-19T06:00:57.873Z,1008.51
2019-01-19T06:01:57.858Z,1008.51
2019-01-19T06:02:57.832Z,1008.49
2019-01-19T06:04:18.818Z,1008.49
2019-01-19T06:04:57.799Z,1008.52
2019-01-19T06:05:58.611Z,1008.54
2019-01-19T06:06:57.739Z,1008.52
2019-01-19T06:07:57.695Z,1008.52
2019-01-19T06:08:57.671Z,1008.54
2019-01-19T06:10:18.697Z,1008.51
2019-01-19T06:10:57.633Z,1008.50
2019-01-19T06:11:57.593Z,1008.52
2019-01-19T06:12:57.578Z,1008.48
2019-01-19T06:13:57.560Z,1008.46
2019-01-19T06:14:57.527Z,1008.46
2019-01-19T06:16:18.502Z,1008.46
2019-01-19T06:16:57.479Z,1008.45
2019-01-19T06:17:57.445Z,1008.46
2019-01-19T06:18:57.418Z,1008.46
2019-01-19T06:19:57.400Z,1008.43
2019-01-19T06:20:57.374Z,1008.42
2019-01-19T06:22:18.352Z,1008.45
2019-01-19T06:22:57.317Z,1008.47
2019-01-19T06:23:57.290Z,1008.45
2019-01-19T06:24:57.275Z,1008.47
2019-01-19T06:25:57.250Z,1008.49
2019-01-19T06:26:57.212Z,1008.47
2019-01-19T06:28:18.241Z,1008.45
2019-01-19T06:28:57.161Z,1008.49
2019-01-19T06:29:57.139Z,1008.50
2019-01-19T06:30:57.111Z,1008.42
2019-01-19T06:31:57.094Z,1008.46
2019-01-19T06:32:57.071Z,1008.47
2019-01-19T06:34:18.049Z,1008.44
2019-01-19T06:34:57.009Z,1008.48
2019-01-19T06:35:56.983Z,1008.49
2019-01-19T06:36:56.965Z,1008.46
2019-01-19T06:37:56.937Z,1008.47
2019-01-19T06:38:56.910Z,1008.54
2019-01-19T06:40:17.891Z,1008.51
2019-01-19T06:40:56.855Z,1008.52
2019-01-19T06:41:56.830Z,1008.50
2019-01-19T06:42:56.806Z,1008.52
2019-01-19T06:43:56.781Z,1008.49
2019-01-19T06:44:56.756Z,1008.49
2019-01-19T06:46:17.742Z,1008.48
2019-01-19T06:46:56.704Z,1008.47
2019-01-19T06:47:56.677Z,1008.45
2019-01-19T06:48:56.663Z,1008.49
2019-01-19T06:49:56.638Z,1008.47
2019-01-19T06:50:56.603Z,1008.46
2019-01-19T06:52:17.591Z,1008.51
2019-01-19T06:52:56.559Z,1008.46
2019-01-19T06:54:01.545Z,1008.48
2019-01-19T06:54:56.507Z,1008.48
2019-01-19T06:55:56.498Z,1008.51
2019-01-19T06:56:56.459Z,1008.50
2019-01-19T06:58:17.436Z,1008.51
2019-01-19T06:58:56.400Z,1008.49
2019-01-19T06:59:56.372Z,1008.51
2019-01-19T07:00:56.350Z,1008.53
2019-01-19T07:01:56.334Z,1008.51
2019-01-19T07:02:56.304Z,1008.52
2019-01-19T07:04:17.272Z,1008.56
2019-01-19T07:04:56.247Z,1008.52
2019-01-19T07:05:56.221Z,1008.55
2019-01-19T07:07:02.588Z,1008.54
2019-01-19T07:07:56.167Z,1008.52
2019-01-19T07:08:56.152Z,1008.51
2019-01-19T07:10:17.129Z,1008.53
2019-01-19T07:10:56.097Z,1008.50
2019-01-19T07:11:56.075Z,1008.50
2019-01-19T07:12:56.048Z,1008.50
2019-01-19T07:13:56.015Z,1008.51
2019-01-19T07:14:55.990Z,1008.57
2019-01-19T07:16:16.978Z,1008.57
2019-01-19T07:16:55.938Z,1008.59
2019-01-19T07:17:55.912Z,1008.57
2019-01-19T07:18:55.899Z,1008.56
2019-01-19T07:19:55.864Z,1008.59
2019-01-19T07:20:55.836Z,1008.57
2019-01-19T07:22:16.822Z,1008.62
2019-01-19T07:22:55.787Z,1008.61
2019-01-19T07:23:55.769Z,1008.61
2019-01-19T07:24:55.746Z,1008.64
2019-01-19T07:25:55.725Z,1008.60
2019-01-19T07:26:55.686Z,1008.59
2019-01-19T07:28:16.657Z,1008.59
2019-01-19T07:28:55.642Z,1008.60
2019-01-19T07:29:55.611Z,1008.60
2019-01-19T07:30:55.582Z,1008.66
2019-01-19T07:31:55.558Z,1008.63
2019-01-19T07:32:55.539Z,1008.63
2019-01-19T07:34:16.506Z,1008.62
2019-01-19T07:34:55.483Z,1008.60
2019-01-19T07:35:55.454Z,1008.62
2019-01-19T07:36:55.440Z,1008.66
2019-01-19T07:37:55.403Z,1008.63
2019-01-19T07:38:55.388Z,1008.63
2019-01-19T07:40:16.349Z,1008.65
2019-01-19T07:40:55.337Z,1008.66
2019-01-19T07:41:55.300Z,1008.65
2019-01-19T07:42:55.282Z,1008.69
2019-01-19T07:43:55.252Z,1008.63
2019-01-19T07:44:55.233Z,1008.67
2019-01-19T07:46:16.209Z,1008.64
2019-01-19T07:46:56.093Z,1008.68
2019-01-19T07:47:55.160Z,1008.65
2019-01-19T07:48:55.127Z,1008.66
2019-01-19T07:49:55.106Z,1008.65
2019-01-19T07:50:55.084Z,1008.68
2019-01-19T07:52:16.054Z,1008.66
2019-01-19T07:52:55.020Z,1008.68
2019-01-19T07:53:54.994Z,1008.66
2019-01-19T07:54:54.974Z,1008.65
2019-01-19T07:55:54.946Z,1008.63
2019-01-19T07:56:54.932Z,1008.69
2019-01-19T07:58:15.904Z,1008.67
2019-01-19T07:58:54.880Z,1008.72
2019-01-19T07:59:54.849Z,1008.68
2019-01-19T08:00:54.833Z,1008.65
2019-01-19T08:01:54.802Z,1008.70
2019-01-19T08:02:54.775Z,1008.68
2019-01-19T08:04:15.738Z,1008.69
2019-01-19T08:04:54.722Z,1008.70
2019-01-19T08:05:54.697Z,1008.70
2019-01-19T08:06:54.675Z,1008.68
2019-01-19T08:07:54.644Z,1008.71
2019-01-19T08:08:54.623Z,1008.72
2019-01-19T08:10:15.585Z,1008.74
2019-01-19T08:10:54.568Z,1008.73
2019-01-19T08:11:54.536Z,1008.73
2019-01-19T08:12:54.517Z,1008.75
2019-01-19T08:13:54.487Z,1008.78
2019-01-19T08:14:54.457Z,1008.78
2019-01-19T08:16:15.436Z,1008.80
2019-01-19T08:16:54.406Z,1008.75
2019-01-19T08:17:54.391Z,1008.76
2019-01-19T08:18:54.375Z,1008.77
2019-01-19T08:19:54.330Z,1008.74
2019-01-19T08:20:54.313Z,1008.76
2019-01-19T08:22:15.281Z,1008.77
2019-01-19T08:22:54.252Z,1008.73
2019-01-19T08:23:54.238Z,1008.74
2019-01-19T08:24:54.205Z,1008.75
2019-01-19T08:25:54.253Z,1008.76
2019-01-19T08:26:54.175Z,1008.74
2019-01-19T08:28:15.135Z,1008.74
2019-01-19T08:28:54.108Z,1008.75
2019-01-19T08:29:54.077Z,1008.70
2019-01-19T08:30:54.055Z,1008.75
2019-01-19T08:31:54.022Z,1008.72
2019-01-19T08:32:53.999Z,1008.74
2019-01-19T08:34:14.976Z,1008.73
2019-01-19T08:34:53.956Z,1008.75
2019-01-19T08:35:53.933Z,1008.73
2019-01-19T08:36:53.905Z,1008.73
2019-01-19T08:37:53.870Z,1008.75
2019-01-19T08:38:53.857Z,1008.73
2019-01-19T08:40:14.828Z,1008.72
2019-01-19T08:40:53.794Z,1008.70
2019-01-19T08:41:53.770Z,1008.70
2019-01-19T08:42:53.753Z,1008.68
2019-01-19T08:43:53.727Z,1008.71
2019-01-19T08:44:53.691Z,1008.67
2019-01-19T08:46:14.675Z,1008.69
2019-01-19T08:46:53.649Z,1008.66
2019-01-19T08:47:53.618Z,1008.68
2019-01-19T08:48:53.602Z,1008.69
2019-01-19T08:49:53.565Z,1008.70
2019-01-19T08:50:53.540Z,1008.71
2019-01-19T08:52:14.515Z,1008.75
2019-01-19T08:52:53.501Z,1008.71
2019-01-19T08:53:53.465Z,1008.69
2019-01-19T08:54:53.452Z,1008.69
2019-01-19T08:55:53.424Z,1008.70
2019-01-19T08:56:53.400Z,1008.68
2019-01-19T08:58:14.372Z,1008.71
2019-01-19T08:58:53.347Z,1008.71
2019-01-19T08:59:53.322Z,1008.75
2019-01-19T09:00:53.296Z,1008.73
2019-01-19T09:01:53.275Z,1008.78
2019-01-19T09:02:53.232Z,1008.78
2019-01-19T09:04:14.220Z,1008.81
2019-01-19T09:04:53.187Z,1008.80
2019-01-19T09:05:53.170Z,1008.79
2019-01-19T09:06:53.137Z,1008.82
2019-01-19T09:07:53.110Z,1008.80
2019-01-19T09:08:53.086Z,1008.81
2019-01-19T09:10:14.064Z,1008.81
2019-01-19T09:10:53.036Z,1008.79
2019-01-19T09:11:53.018Z,1008.83
2019-01-19T09:12:54.545Z,1008.81
2019-01-19T09:13:52.958Z,1008.84
2019-01-19T09:14:52.934Z,1008.83
2019-01-19T09:16:13.917Z,1008.83
2019-01-19T09:16:52.883Z,1008.85
2019-01-19T09:17:52.858Z,1008.85
2019-01-19T09:18:52.833Z,1008.86
2019-01-19T09:19:52.816Z,1008.82
2019-01-19T09:20:52.794Z,1008.82
2019-01-19T09:22:13.757Z,1008.86
2019-01-19T09:22:52.735Z,1008.86
2019-01-19T09:23:52.716Z,1008.85
2019-01-19T09:24:52.684Z,1008.87
2019-01-19T09:25:52.664Z,1008.90
2019-01-19T09:26:52.633Z,1008.84
2019-01-19T09:28:13.606Z,1008.88
2019-01-19T09:28:52.592Z,1008.83
2019-01-19T09:29:52.569Z,1008.88
2019-01-19T09:30:52.542Z,1008.89
2019-01-19T09:31:52.510Z,1008.86
2019-01-19T09:32:52.482Z,1008.84
2019-01-19T09:34:13.460Z,1008.90
2019-01-19T09:34:52.443Z,1008.89
2019-01-19T09:35:52.418Z,1008.88
2019-01-19T09:36:52.396Z,1008.91
2019-01-19T09:37:52.365Z,1008.90
2019-01-19T09:38:52.343Z,1008.93
2019-01-19T09:40:13.310Z,1008.93
2019-01-19T09:40:52.291Z,1008.93
2019-01-19T09:41:52.267Z,1008.95
2019-01-19T09:42:52.233Z,1008.93
2019-01-19T09:43:52.232Z,1008.97
2019-01-19T09:44:52.182Z,1008.94
2019-01-19T09:46:13.217Z,1008.99
2019-01-19T09:46:52.144Z,1008.94
2019-01-19T09:47:52.129Z,1008.99
2019-01-19T09:48:52.095Z,1009.02
2019-01-19T09:49:52.073Z,1009.01
2019-01-19T09:50:52.080Z,1009.04
2019-01-19T09:52:13.014Z,1009.00
2019-01-19T09:52:51.996Z,1008.99
2019-01-19T09:53:51.962Z,1008.97
2019-01-19T09:54:51.941Z,1008.96
2019-01-19T09:55:51.910Z,1008.98
2019-01-19T09:56:51.886Z,1008.96
2019-01-19T09:58:12.860Z,1008.97
2019-01-19T09:58:51.847Z,1008.98
2019-01-19T09:59:51.811Z,1008.99
2019-01-19T10:00:51.785Z,1009.00
2019-01-19T10:01:51.789Z,1009.00
2019-01-19T10:02:51.746Z,1008.98
2019-01-19T10:04:12.721Z,1008.99
2019-01-19T10:04:51.688Z,1008.96
2019-01-19T10:05:51.672Z,1008.97
2019-01-19T10:06:51.645Z,1008.97
2019-01-19T10:07:51.616Z,1008.99
2019-01-19T10:08:51.589Z,1009.00
2019-01-19T10:10:12.577Z,1008.95
2019-01-19T10:10:51.545Z,1008.98
2019-01-19T10:11:51.517Z,1008.94
2019-01-19T10:12:51.492Z,1008.92
2019-01-19T10:13:51.479Z,1008.92
2019-01-19T10:14:51.456Z,1008.94
2019-01-19T10:16:12.421Z,1008.96
2019-01-19T10:16:51.397Z,1008.91
2019-01-19T10:17:51.382Z,1008.95
2019-01-19T10:18:51.344Z,1008.94
2019-01-19T10:19:51.321Z,1008.95
2019-01-19T10:20:51.306Z,1008.95
2019-01-19T10:22:12.296Z,1008.98
2019-01-19T10:22:51.265Z,1008.94
2019-01-19T10:23:51.236Z,1008.93
2019-01-19T10:24:51.212Z,1008.95
2019-01-19T10:25:51.185Z,1008.96
2019-01-19T10:26:51.164Z,1008.95
2019-01-19T10:28:12.145Z,1008.95
2019-01-19T10:28:51.107Z,1008.91
2019-01-19T10:29:51.081Z,1008.93
2019-01-19T10:30:51.614Z,1008.92
2019-01-19T10:31:51.040Z,1008.90
2019-01-19T10:32:51.019Z,1008.89
2019-01-19T10:34:11.986Z,1008.88
2019-01-19T10:34:50.973Z,1008.87
2019-01-19T10:35:50.937Z,1008.88
2019-01-19T10:36:50.921Z,1008.90
2019-01-19T10:37:56.285Z,1008.85
2019-01-19T10:38:50.873Z,1008.84
2019-01-19T10:40:11.846Z,1008.82
2019-01-19T10:40:50.814Z,1008.78
2019-01-19T10:41:50.801Z,1008.84
2019-01-19T10:42:50.772Z,1008.81
2019-01-19T10:43:50.752Z,1008.76
2019-01-19T10:44:50.735Z,1008.77
2019-01-19T10:46:11.696Z,1008.76
2019-01-19T10:46:50.707Z,1008.75
2019-01-19T10:47:50.657Z,1008.76
2019-01-19T10:48:50.633Z,1008.78
2019-01-19T10:49:50.607Z,1008.72
2019-01-19T10:50:50.585Z,1008.70
2019-01-19T10:52:11.561Z,1008.73
2019-01-19T10:52:50.530Z,1008.68
2019-01-19T10:53:50.505Z,1008.64
2019-01-19T10:54:50.487Z,1008.69
2019-01-19T10:55:50.471Z,1008.65
2019-01-19T10:56:50.434Z,1008.62
2019-01-19T10:58:11.421Z,1008.63
2019-01-19T10:58:50.387Z,1008.65
2019-01-19T10:59:50.373Z,1008.64
2019-01-19T11:00:50.339Z,1008.59
2019-01-19T11:01:50.324Z,1008.57
2019-01-19T11:02:50.292Z,1008.58
2019-01-19T11:04:11.269Z,1008.56
2019-01-19T11:04:50.254Z,1008.51
2019-01-19T11:05:50.221Z,1008.53
2019-01-19T11:06:50.206Z,1008.51
2019-01-19T11:07:50.182Z,1008.54
2019-01-19T11:08:50.150Z,1008.54
2019-01-19T11:10:11.142Z,1008.53
2019-01-19T11:10:50.103Z,1008.57
2019-01-19T11:11:50.091Z,1008.49
2019-01-19T11:12:50.066Z,1008.49
2019-01-19T11:13:50.032Z,1008.47
2019-01-19T11:14:50.022Z,1008.47
2019-01-19T11:16:10.988Z,1008.46
2019-01-19T11:16:49.961Z,1008.43
2019-01-19T11:17:49.950Z,1008.43
2019-01-19T11:18:49.927Z,1008.40
2019-01-19T11:19:49.895Z,1008.37
2019-01-19T11:20:49.878Z,1008.38
2019-01-19T11:22:10.854Z,1008.37
2019-01-19T11:22:49.833Z,1008.34
2019-01-19T11:23:49.807Z,1008.32
2019-01-19T11:24:49.777Z,1008.30
2019-01-19T11:25:49.753Z,1008.30
2019-01-19T11:26:49.740Z,1008.28
2019-01-19T11:28:10.714Z,1008.23
2019-01-19T11:28:49.682Z,1008.26
2019-01-19T11:29:49.671Z,1008.21
2019-01-19T11:30:49.639Z,1008.17
2019-01-19T11:31:49.610Z,1008.17
2019-01-19T11:32:49.586Z,1008.19
2019-01-19T11:34:10.566Z,1008.19
2019-01-19T11:34:49.556Z,1008.18
2019-01-19T11:35:49.521Z,1008.15
2019-01-19T11:36:49.504Z,1008.17
2019-01-19T11:37:49.518Z,1008.16
2019-01-19T11:38:49.450Z,1008.13
2019-01-19T11:40:10.431Z,1008.11
2019-01-19T11:40:49.411Z,1008.11
2019-01-19T11:41:49.391Z,1008.08
2019-01-19T11:42:49.355Z,1008.10
2019-01-19T11:43:49.331Z,1008.06
2019-01-19T11:44:49.309Z,1008.05
2019-01-19T11:46:10.296Z,1008.03
2019-01-19T11:46:49.275Z,1007.98
2019-01-19T11:47:49.248Z,1007.95
2019-01-19T11:48:49.217Z,1007.99
2019-01-19T11:49:49.204Z,1007.97
2019-01-19T11:50:49.171Z,1007.94
2019-01-19T11:52:10.145Z,1007.91
2019-01-19T11:52:49.123Z,1007.94
2019-01-19T11:53:49.113Z,1007.88
2019-01-19T11:54:49.089Z,1007.89
2019-01-19T11:55:49.063Z,1007.91
2019-01-19T11:56:49.040Z,1007.89
2019-01-19T11:58:10.006Z,1007.90
2019-01-19T11:58:48.988Z,1007.87
2019-01-19T11:59:48.971Z,1007.87
2019-01-19T12:00:48.949Z,1007.84
2019-01-19T12:01:48.922Z,1007.83
2019-01-19T12:02:48.902Z,1007.83
2019-01-19T12:04:09.879Z,1007.88
2019-01-19T12:04:48.845Z,1007.87